You are not logged in.

#1 2008-04-07 10:26:58

noway_man
Member
Registered: 2008-04-07
Posts: 3

Nach upload von GPX files endstehen keine Wegpunkte

Hallo zusammen,  ich bin neu hier und möchte mich gerne am Projekt beteiligen.  Ich habe als ersten Versuch mit meinem Blackberry und der Software GPSed meinen morgendlichen Weg zur Arbeit aufgezeichnet und als GPX hochgeladen. Als Ergebnis sehe ich aber nur eine Art Dreieck und nicht wie bei anderen Uploads einen streckenähnlichen Verlauf.  Hier mal ein Auszug aus dem GPX File: 

<?xml version="1.0"?> <gpx version="1.0"  creator="GPSed - http://gpsed.com"  xmlns:xsi="http://www.w3.org/2001/XMLSchema-instance"  xmlns="http://www.topografix.com/GPX/1/0"  xsi:schemaLocation="http://www.topografix.com/GPX/1/0 http://www.topografix.com/GPX/1/0/gpx.xsd">  <trk>    <name>hhhhh</name>    <desc>Description</desc>    <trkseg>         <trkpt lat="8.908746784564238E194" lon="4.778309762337662E-299">           <ele>1.076E-42</ele>           <time>10889-08-02T07:39:29Z</time>           <course>7.0E-45</course>           <speed>3.59E-43</speed>         </trkpt>         <trkpt lat="2.3346075413619604E-119" lon="2.3290343690753257E-119">           <ele>1.1505891E-35</ele>           <time>1977-10-04T01:38:56Z</time>           <course>7.236004E-9</course>           <speed>2.4667296</speed>         </trkpt>         <trkpt lat="1.67385252189529728E17" lon="4.087491304022507E-33">           <ele>2.9802322E-8</ele>           <time>153053162-03-23T00:26:10Z</time>           <course>1.1641534E-10</course>           <speed>6.018531E-36</speed>         </trkpt>         <trkpt lat="1.6738844584425608E-187" lon="-1.2538799466521299E250">           <ele>8.591231E21</ele>           <time>57437923-09-24T09:10:51Z</time>           <course>6.018381E-39</course>           <speed>-3.756767E-32</speed>         </trkpt>         <trkpt lat="1.0609978978E-313" lon="5.96606637784E-312">           <ele>3.94E-43</ele>           <time>115846189-09-17T07:51:58Z</time>           <course>3.1565585</course>           <speed>2.8682552E-15</speed>         </trkpt>         <trkpt lat="1.0171961972486437E-219" lon="8.160436891853392E7">           <ele>1.10848E-40</ele>           <time>253876131-11-28T02:25:15Z</time>           <course>1.7219E-41</course>           <speed>1.794E-42</speed>         </trkpt>         <trkpt lat="1.527313026482805E-309" lon="3.869658807206961E48">           <ele>5.8674037E-21</ele>           <time>11765-12-28T01:45:20Z</time>           <course>1.0587912E-22</course>           <speed>-5.188051E-11</speed>         </trkpt>         <trkpt lat="4.309811390248951E-298" lon="2.60750843149416E-310">           <ele>5.1338281E9</ele>           <time>1979-03-20T03:21:47Z</time>           <course>4.3400888E9</course>           <speed>1.00858E-40</speed>         </trkpt>         <trkpt lat="7.391228531725199E-165" lon="8.443074014728252E-227">           <ele>1.6422197E38</ele>           <time>169020389-01-19T06:06:15Z</time>           <course>1.794E-42</course>           <speed>1.3018256E-37</speed>         </trkpt>         <trkpt lat="4.136401000330982E77" lon="3.772431143521993E77">           <ele>1.6313553</ele>           <time>3642-06-03T09:03:25Z</time>           <course>-3.8305426E-8</course>           <speed>5.8108897E-21</speed>         </trkpt>         <trkpt lat="1.608204732499158E-154" lon="2.7161546185066E-311">           <ele>1.00858E-40</ele>           <time>18269293-01-18T03:22:55Z</time>           <course>1.00858E-40</course>           <speed>1.7343447E10</speed>         </trkpt>         <trkpt lat="-2.0094119488040527E127" lon="-6.125577640596131E179">           <ele>-2.7200767E23</ele>           <time>183739894-10-31T10:39:35Z</time>           <course>1.3239522E-37</course>           <speed>1.7028651E-7</speed>         </trkpt>         <trkpt lat="1.527313184715036E-309" lon="1.527313183440426E-309">           <ele>2170487.2</ele>           <time>2144-03-18T04:29:11Z</time>           <course>5.9583956E-21</course>           <speed>0.0053664744</speed>         </trkpt>         <trkpt lat="-3.825730500484668E193" lon="3.1640581300628244E-293">           <ele>1.312E-42</ele>           <time>80474039-06-27T01:03:23Z</time>           <course>2.8538768E-15</course>           <speed>3.94E-43</speed>         </trkpt>         <trkpt lat="7.468071" lon="9.851625524953088E14">           <ele>9.475708</ele>           <time>146800700-02-14T11:11:51Z</time>           <course>2.8563975E-15</course>           <speed>3.94E-43</speed>         </trkpt>         <trkpt lat="7.468134" lon="8.092406936103812E14">           <ele>351.14502</ele>           <time>146800700-09-12T03:17:27Z</time>           <course>2.8574563E-15</course>           <speed>3.94E-43</speed>         </trkpt>         <trkpt lat="7.468116" lon="8.444250662937558E14">           <ele>349.8761</ele>           <time>146800701-04-07T00:11:48Z</time>           <course>2.8585363E-15</course>           <speed>3.94E-43</speed>         </trkpt>         <trkpt lat="7.468068" lon="8.092406948996054E14">           <ele>243.58887</ele>           <time>146800701-02-09T10:54:56Z</time>           <course>2.859806E-15</course>           <speed>3.94E-43</speed>         </trkpt>         <trkpt lat="7.467675" lon="8.092406955211489E14">           <ele>261.167</ele>           <time>146800700-12-04T04:04:19Z</time>           <course>2.8610562E-15</course>           <speed>3.94E-43</speed>         </trkpt>         <trkpt lat="7.467371" lon="8.444250671347139E14">           <ele>318.47717</ele>           <time>146800701-01-29T01:15:34Z</time>           <course>2.8670066E-15</course>           <speed>3.94E-43</speed>         </trkpt>         <trkpt lat="7.467009" lon="1.548112647161905E15">           <ele>344.9817</ele>           <time>146800706-09-17T09:39:42Z</time>           <course>2.8716433E-15</course>           <speed>3.94E-43</speed>         </trkpt>         <trkpt lat="7.46655" lon="2.0406938560799702E15">           <ele>344.74548</ele>           <time>146800711-07-24T00:33:51Z</time>           <course>2.8727233E-15</course>           <speed>3.94E-43</speed>         </trkpt>         <trkpt lat="7.466473" lon="2.0406938512654335E15">           <ele>342.85583</ele>           <time>146800712-04-14T00:50:42Z</time>           <course>2.8739726E-15</course>           <speed>3.94E-43</speed>         </trkpt>         <trkpt lat="7.466469" lon="1.899956092796928E15">           <ele>355.44617</ele>           <time>146800712-04-17T07:01:57Z</time>           <course>2.8750314E-15</course>           <speed>3.94E-43</speed>         </trkpt>         <trkpt lat="7.466387" lon="1.759218878513152E15">           <ele>279.01978</ele>           <time>146800712-06-05T03:50:42Z</time>           <course>2.8809835E-15</course>           <speed>3.94E-43</speed>         </trkpt>         <trkpt lat="7.463541" lon="1.0555312982322052E15">           <ele>256.22314</ele>           <time>146800710-02-07T11:00:10Z</time>           <course>2.8822329E-15</course>           <speed>3.94E-43</speed>         </trkpt>         <trkpt lat="7.463507" lon="9.85162556437168E14">           <ele>165.51453</ele>           <time>146800709-06-05T09:45:12Z</time>           <course>2.8845817E-15</course>           <speed>3.94E-43</speed>         </trkpt>         <trkpt lat="7.46382" lon="8.444250692059135E14">           <ele>174.80896</ele>           <time>146800704-05-10T08:09:48Z</time>           <course>2.8883934E-15</course>           <speed>3.94E-43</speed>         </trkpt>         <trkpt lat="7.464759" lon="7.740563248949494E14">           <ele>161.91649</ele>           <time>146800695-03-01T02:57:04Z</time>           <course>2.8896427E-15</course>           <speed>3.94E-43</speed>         </trkpt>         <trkpt lat="7.464908" lon="6.685032088278139E14">           <ele>184.27917</ele>           <time>146800691-09-22T06:40:21Z</time>           <course>2.8919924E-15</course>           <speed>3.94E-43</speed>         </trkpt>         <trkpt lat="7.464662" lon="5.2776565077331144E14">           <ele>181.38428</ele>           <time>146800685-05-18T08:16:15Z</time>           <course>2.8930512E-15</course>           <speed>3.94E-43</speed>         </trkpt>         <trkpt lat="7.464643" lon="5.629500916236288E14">           <ele>180.21423</ele>           <time>146800683-02-25T11:29:28Z</time>           <course>2.8942997E-15</course>           <speed>3.94E-43</speed>         </trkpt>         <trkpt lat="7.464658" lon="5.629500896397229E14">           <ele>166.76695</ele>           <time>146800682-07-15T05:33:15Z</time>           <course>2.8955923E-15</course>           <speed>3.94E-43</speed>         </trkpt>         <trkpt lat="7.465251" lon="5.629500921331056E14">           <ele>78.50281</ele>           <time>146800682-06-19T04:03:15Z</time>           <course>2.8966545E-15</course>           <speed>3.94E-43</speed>         </trkpt>         <trkpt lat="7.466242" lon="5.981344647681146E14">           <ele>73.35571</ele>           <time>146800683-03-03T11:51:58Z</time>           <course>2.900251E-15</course>           <speed>3.94E-43</speed>         </trkpt>         <trkpt lat="7.469826" lon="8.444250683484406E14">           <ele>54.75586</ele>           <time>146800687-09-14T00:06:46Z</time>           <course>2.9015224E-15</course>           <speed>3.94E-43</speed>         </trkpt>         <trkpt lat="7.469648" lon="8.796094408441201E14">           <ele>333.5559</ele>           <time>146800689-06-29T07:47:57Z</time>           <course>2.902792E-15</course>           <speed>3.94E-43</speed>         </trkpt>         <trkpt lat="7.47004" lon="7.740563247474934E14">           <ele>79.98596</ele>           <time>146800691-06-21T10:19:44Z</time>           <course>2.9051223E-15</course>           <speed>3.94E-43</speed>         </trkpt>         <trkpt lat="7.472437" lon="7.388719535232122E14">           <ele>122.65686</ele>           <time>146800687-09-20T00:29:16Z</time>           <course>2.9241585E-15</course>           <speed>3.94E-43</speed>         </trkpt>         <trkpt lat="7.49445" lon="7.38871953644716E14">           <ele>148.9032</ele>           <time>146800624-12-25T03:45:08Z</time>           <course>6.9E-44</course>           <speed>7.0E-45</speed>         </trkpt>         <trkpt lat="5.9660686292E-312" lon="51.991926">           <ele>2.4712992</ele>           <time>2008-04-07T07:22:16Z</time>           <course>121.0</course>           <speed>3.71561044E12</speed>         </trkpt>         <trkpt lat="4.412291875758714E-309" lon="1.3449748896121808E-284">           <ele>8.651131E-24</ele>           <time>152416874-07-31T07:37:12Z</time>           <course>8.651124E-24</course>           <speed>-5.6295002E14</speed>         </trkpt>         <trkpt lat="-6.595078943410405E150" lon="-3.4882680540990457E107">           <ele>1.1073056E-11</ele>           <time>91911971-11-24T10:15:06Z</time>           <course>3.0985829E32</course>           <speed>3.006E-42</speed>         </trkpt>         <trkpt lat="2.542320717595277E-309" lon="7.388483784978498E90">           <ele>0.1283617</ele>           <time>222424622-05-27T05:06:14Z</time>           <course>-2455.6414</course>           <speed>6.6517155E-21</speed>         </trkpt>         <trkpt lat="7.973755960980001E-204" lon="1.0943468824181964E94">           <ele>4727712.0</ele>           <time>6852221-10-28T02:38:10Z</time>           <course>0.098007694</course>           <speed>6.87498E-21</speed>         </trkpt>         <trkpt lat="1.514789760036428E-207" lon="2.5569898693542953E94">           <ele>-1.4308826E-15</ele>           <time>9131492-07-31T10:11:09Z</time>           <course>-5.8888873E-26</course>           <speed>6.9364E-21</speed>         </trkpt>         <trkpt lat="5.6869407286888705E-217" lon="1.1097643984151434E97">           <ele>1.4232268E36</ele>           <time>4564757-04-30T07:21:51Z</time>           <course>1.4141396E21</course>           <speed>7.544312E-21</speed>         </trkpt>         <trkpt lat="-1.2590654737993743E306" lon="3.437813670566784E97">           <ele>-1.9243399E-27</ele>           <time>4564757-04-26T11:05:22Z</time>           <course>0.12836173</course>           <speed>7.652299E-21</speed>         </trkpt>         <trkpt lat="-2.1079951694775736E288" lon="7.100090493808545E102">           <ele>2.1215131E-18</ele>           <time>9131492-07-24T06:48:08Z</time>           <course>-5.002058E-38</course>           <speed>8.549259E-21</speed>         </trkpt>         <trkpt lat="-3.0432396148239586E269" lon="8.153022402182842E104">           <ele>2.1878577E21</ele>           <time>27398431-08-21T01:40:49Z</time>           <course>-0.012264552</course>           <speed>9.08518E-21</speed>         </trkpt>         <trkpt lat="-1.1700666109303277E132" lon="2.8419006218806813E106">           <ele>2.773124E-10</ele>           <time>36531900-03-02T08:59:43Z</time>           <course>-6.2942423E9</course>           <speed>9.466656E-21</speed>         </trkpt>         <trkpt lat="-1.985653405299045E77" lon="1.3658504213434403E108">           <ele>4.3249238E-36</ele>           <time>13698227-10-30T06:13:02Z</time>           <course>-1.08813335E23</course>           <speed>9.802325E-21</speed>         </trkpt>         <trkpt lat="-1.092972736989862E235" lon="3.252325028514466E108">           <ele>7.85392E-32</ele>           <time>11419050-04-26T05:11:04Z</time>           <course>-1.6867605E22</course>           <speed>9.842658E-21</speed>         </trkpt>         <trkpt lat="4.092779426845412E-204" lon="2.0092199804352585E109">           <ele>-3.1530305E-19</ele>           <time>11419050-04-19T05:29:30Z</time>           <course>2.59476486E13</course>           <speed>9.880226E-21</speed>         </trkpt>

Kann mir jeman sagen was ich falsch mache??  Grüße A.E.

Offline

#2 2008-04-07 13:21:44

John07
Member
Registered: 2007-11-13
Posts: 245

Re: Nach upload von GPX files endstehen keine Wegpunkte

Das vollständige gpx-File wäre nett gewesen. Was ich schon erkennen konnte, ist das irgendetwas nicht stimmt, wenn du die Koordinaten anschaust, sie springen so schnell hinundher, da passt irgendwas nicht. Dann ist auch noch die Frage, wo du denn nun das Dreieck siehst, also Potlach oder JOSM...? Gruß Jonas

Last edited by John07 (2008-04-07 13:22:08)

Offline

#3 2008-04-07 15:15:51

noway_man
Member
Registered: 2008-04-07
Posts: 3

Re: Nach upload von GPX files endstehen keine Wegpunkte

John07 wrote:

Das vollständige gpx-File wäre nett gewesen. Was ich schon erkennen konnte, ist das irgendetwas nicht stimmt, wenn du die Koordinaten anschaust, sie springen so schnell hinundher, da passt irgendwas nicht. Dann ist auch noch die Frage, wo du denn nun das Dreieck siehst, also Potlach oder JOSM...? Gruß Jonas

Hallo Jonas,  vielen Dank für den Tipp. Scheinbar ist der GPX-Export des Tools noch nicht ausgereift.  Das Dreieck habe ich in der kleinen Vorschau gesehen wenn das File importiert wurde.  Ich habe gestern ein anderes GPX-File in JOSM bearbeitet, außer zwei Punkte konnte ich nichts erkennen.  Ich denke ich werde mir ein anderes Programm/Gerät besorgen.  Vielen Dank erstmal A.E.

Offline

#4 2008-04-09 08:39:39

noway_man
Member
Registered: 2008-04-07
Posts: 3

Re: Nach upload von GPX files endstehen keine Wegpunkte

Hallo,  ich hab jetzt eine funktionierende Lösung gefunden.  Mit dem Programm bbtracker (www.bbtracker.org) und meinen Blackberry 8310 funktioniert es prima.  Grüße A.E.

Offline

#5 2008-04-11 16:06:35

Simon Kokolakis
Member
Registered: 2008-01-19
Posts: 9

Re: Nach upload von GPX files endstehen keine Wegpunkte

kann es vielleicht sein dass am Ende die Befehle      </trkseg>   </trk> </gpx>  fehlen? Bei mir ist das der Fall wenn ich cgpxlogger verwende und per STRG-C abbreche.  Gruß Simon

Offline

#6 2008-04-11 18:05:23

John07
Member
Registered: 2007-11-13
Posts: 245

Re: Nach upload von GPX files endstehen keine Wegpunkte

Er hat doch nur ein Ausschnitt bereitgestellt, natürlich fehlt da das Ende. Das hatte ich manuell ergänzt, ging trotzdem net. Die Koordinaten sind offentsichtlich das Problem. Aber er hats ja mittlerweile gelöst. Gruß Jonas

Offline

Board footer

Powered by FluxBB